Time;durP1;ratioP1;P1;durP2;ratioP2;P2;SDS_P1;SDS_P2;PMS_P1;PMS_P2;Temp;Humidity;BMP_temperature;BMP_pressure;BME280_temperature;BME280_humidity;BME280_pressure;Samples;Min_cycle;Max_cycle;Signal;HPM_P1;HPM_P2
2022/10/06 00:01:53;;;;;;;;;;;13.00;99.90;;;;;;5053657;28;19935;-66
2022/10/06 00:04:19;;;;;;;;;;;13.00;99.90;;;;;;5044747;28;19921;-66
2022/10/06 00:06:44;;;;;;;;;;;12.90;99.90;;;;;;5048792;28;19920;-66
2022/10/06 00:09:10;;;;;;;;;;;12.80;99.90;;;;;;5052440;28;20000;-66
2022/10/06 00:11:36;;;;;;;;;;;12.80;99.90;;;;;;5054411;28;19920;-66
2022/10/06 00:14:02;;;;;;;;;;;12.80;99.90;;;;;;5048447;28;19939;-66
2022/10/06 00:16:27;;;;;;;;;;;12.70;99.90;;;;;;5051758;28;19928;-66
2022/10/06 00:18:53;;;;;;;;;;;12.60;99.90;;;;;;5053297;28;20032;-66
2022/10/06 00:21:18;;;;;;;;;;;12.60;99.90;;;;;;5055665;28;19924;-66
2022/10/06 00:23:44;;;;;;;;;;;12.60;99.90;;;;;;5054755;28;19920;-66
2022/10/06 00:26:15;;;;;;;;;;;12.60;99.90;;;;;;5045036;28;20023;-66
2022/10/06 00:28:42;;;;;;;;;;;12.50;99.90;;;;;;5054186;28;19925;-66
2022/10/06 00:31:08;;;;;;;;;;;12.50;99.90;;;;;;5050640;28;19928;-66
2022/10/06 00:33:33;;;;;;;;;;;12.50;99.90;;;;;;5053688;28;19921;-66
2022/10/06 00:35:59;;;;;;;;;;;12.50;99.90;;;;;;5048748;28;19929;-66
2022/10/06 00:38:25;;;;;;;;;;;12.50;99.90;;;;;;5039169;28;20533;-66
2022/10/06 00:40:50;;;;;;;;;;;12.50;99.90;;;;;;5053441;28;20014;-66
2022/10/06 00:43:39;;;;;;;;;;;12.50;99.90;;;;;;5054354;28;19925;-66
2022/10/06 00:46:06;;;;;;;;;;;12.50;99.90;;;;;;5054255;28;20014;-66
2022/10/06 00:48:32;;;;;;;;;;;12.50;99.90;;;;;;5054415;28;20370;-66
2022/10/06 00:50:58;;;;;;;;;;;12.50;99.90;;;;;;5052386;28;20009;-66
2022/10/06 00:53:25;;;;;;;;;;;12.40;99.90;;;;;;5051770;28;20290;-66
2022/10/06 00:55:53;;;;;;;;;;;12.40;99.90;;;;;;5051910;28;19929;-66
2022/10/06 00:58:19;;;;;;;;;;;12.40;99.90;;;;;;5053832;28;20007;-66
2022/10/06 01:00:44;;;;;;;;;;;12.40;99.90;;;;;;5052372;28;20044;-66
2022/10/06 01:03:20;;;;;;;;;;;12.40;99.90;;;;;;5053671;28;20437;-66
2022/10/06 01:05:47;;;;;;;;;;;12.40;99.90;;;;;;5049947;28;19956;-66
2022/10/06 01:08:13;;;;;;;;;;;12.40;99.90;;;;;;5059942;28;20309;-66
2022/10/06 01:10:39;;;;;;;;;;;12.50;99.90;;;;;;5046684;28;19924;-66
2022/10/06 01:13:05;;;;;;;;;;;12.50;99.90;;;;;;5052752;28;20390;-66
2022/10/06 01:15:32;;;;;;;;;;;12.50;99.90;;;;;;5053911;28;19936;-66
2022/10/06 01:18:01;;;;;;;;;;;12.50;99.90;;;;;;5051929;28;20000;-66
2022/10/06 01:20:28;;;;;;;;;;;12.50;99.90;;;;;;5052680;28;19928;-66
2022/10/06 01:23:02;;;;;;;;;;;12.50;99.90;;;;;;5053685;28;19928;-66
2022/10/06 01:25:28;;;;;;;;;;;12.40;99.90;;;;;;5032025;28;20051;-66
2022/10/06 01:27:54;;;;;;;;;;;12.40;99.90;;;;;;5050595;28;20291;-66
2022/10/06 01:30:22;;;;;;;;;;;12.40;99.90;;;;;;5051446;28;19920;-66
2022/10/06 01:32:47;;;;;;;;;;;12.40;99.90;;;;;;5027990;28;19928;-66
2022/10/06 01:35:13;;;;;;;;;;;12.30;99.90;;;;;;5049655;28;19925;-66
2022/10/06 01:37:38;;;;;;;;;;;12.30;99.90;;;;;;5049325;28;20356;-66
2022/10/06 01:40:04;;;;;;;;;;;12.20;99.90;;;;;;5044743;28;19935;-66
2022/10/06 01:42:31;;;;;;;;;;;12.30;99.90;;;;;;5046517;28;19951;-66
2022/10/06 01:44:58;;;;;;;;;;;12.20;99.90;;;;;;5049556;28;19959;-66
2022/10/06 01:47:23;;;;;;;;;;;12.20;99.90;;;;;;5050376;28;19921;-66
2022/10/06 01:49:49;;;;;;;;;;;12.10;99.90;;;;;;5050120;28;19927;-67
2022/10/06 01:52:14;;;;;;;;;;;12.10;99.90;;;;;;5046032;28;19921;-66
2022/10/06 01:54:40;;;;;;;;;;;12.10;99.90;;;;;;5045080;28;19921;-66
2022/10/06 01:57:07;;;;;;;;;;;12.00;99.90;;;;;;5050071;28;19956;-66
2022/10/06 01:59:32;;;;;;;;;;;12.00;99.90;;;;;;5051683;28;19921;-66
2022/10/06 02:01:58;;;;;;;;;;;12.00;99.90;;;;;;5052361;28;20023;-66
2022/10/06 02:04:23;;;;;;;;;;;12.00;99.90;;;;;;5050246;28;19971;-66
2022/10/06 02:06:50;;;;;;;;;;;12.00;99.90;;;;;;5050582;28;20301;-66
2022/10/06 02:09:16;;;;;;;;;;;12.00;99.90;;;;;;5053004;28;19921;-66
2022/10/06 02:11:41;;;;;;;;;;;12.00;99.90;;;;;;5053516;28;19978;-66
2022/10/06 02:14:07;;;;;;;;;;;11.90;99.90;;;;;;5049908;28;19964;-66
2022/10/06 02:16:33;;;;;;;;;;;11.90;99.90;;;;;;5051089;28;19927;-66
2022/10/06 02:18:58;;;;;;;;;;;11.90;99.90;;;;;;5051073;28;19985;-66
2022/10/06 02:21:24;;;;;;;;;;;11.90;99.90;;;;;;5052363;28;19928;-66
2022/10/06 02:23:50;;;;;;;;;;;11.90;99.90;;;;;;5051728;28;19925;-66
2022/10/06 02:26:16;;;;;;;;;;;11.90;99.90;;;;;;5048463;28;19928;-66
2022/10/06 02:28:43;;;;;;;;;;;11.80;99.90;;;;;;5045003;28;19921;-66
2022/10/06 02:31:09;;;;;;;;;;;11.90;99.90;;;;;;5047493;28;20004;-66
2022/10/06 02:33:35;;;;;;;;;;;11.80;99.90;;;;;;5050089;28;19927;-66
2022/10/06 02:36:01;;;;;;;;;;;11.80;99.90;;;;;;5051160;28;19925;-66
2022/10/06 02:38:27;;;;;;;;;;;11.80;99.90;;;;;;5034202;28;19948;-66
2022/10/06 02:40:53;;;;;;;;;;;11.80;99.90;;;;;;5036650;28;19925;-66
2022/10/06 02:43:19;;;;;;;;;;;11.80;99.90;;;;;;5050035;28;19925;-66
2022/10/06 02:45:54;;;;;;;;;;;11.70;99.90;;;;;;5052205;28;19932;-66
2022/10/06 02:48:21;;;;;;;;;;;11.70;99.90;;;;;;5050287;28;19921;-66
2022/10/06 02:50:51;;;;;;;;;;;11.70;99.90;;;;;;5051701;28;20626;-66
2022/10/06 02:53:17;;;;;;;;;;;11.60;99.90;;;;;;5052880;28;19931;-66
2022/10/06 02:55:43;;;;;;;;;;;11.60;99.90;;;;;;5052983;28;19925;-66
2022/10/06 02:58:10;;;;;;;;;;;11.60;99.90;;;;;;5051506;28;19921;-66
2022/10/06 03:00:35;;;;;;;;;;;11.50;99.90;;;;;;5052609;28;19931;-66
2022/10/06 03:03:01;;;;;;;;;;;11.50;99.90;;;;;;5052616;28;19925;-66
2022/10/06 03:05:26;;;;;;;;;;;11.40;99.90;;;;;;5050751;28;20301;-66
2022/10/06 03:07:52;;;;;;;;;;;11.40;99.90;;;;;;5041394;28;20027;-66
2022/10/06 03:10:17;;;;;;;;;;;11.40;99.90;;;;;;5048860;28;20026;-66
2022/10/06 03:12:43;;;;;;;;;;;11.30;99.90;;;;;;5052438;28;20294;-66
2022/10/06 03:15:08;;;;;;;;;;;11.30;99.90;;;;;;5052545;28;19921;-66
2022/10/06 03:17:34;;;;;;;;;;;11.30;99.90;;;;;;5051753;28;19966;-66
2022/10/06 03:19:59;;;;;;;;;;;11.20;99.90;;;;;;5050115;28;19931;-66
2022/10/06 03:22:24;;;;;;;;;;;11.20;99.90;;;;;;5046406;28;19947;-66
2022/10/06 03:24:50;;;;;;;;;;;11.20;99.90;;;;;;5041057;28;19929;-66
2022/10/06 03:27:15;;;;;;;;;;;11.10;99.90;;;;;;5050543;28;19925;-66
2022/10/06 03:29:41;;;;;;;;;;;11.10;99.90;;;;;;5050611;28;19938;-66
2022/10/06 03:32:06;;;;;;;;;;;11.00;99.90;;;;;;5049966;28;19925;-66
2022/10/06 03:34:32;;;;;;;;;;;11.00;99.90;;;;;;5047487;28;19921;-66
2022/10/06 03:36:57;;;;;;;;;;;11.00;99.90;;;;;;5046517;28;19973;-66
2022/10/06 03:39:23;;;;;;;;;;;10.90;99.90;;;;;;5044207;22;19929;-64
2022/10/06 03:41:48;;;;;;;;;;;10.90;99.90;;;;;;5046586;28;20011;-64
2022/10/06 03:44:14;;;;;;;;;;;10.90;99.90;;;;;;5030428;28;19921;-64
2022/10/06 03:46:39;;;;;;;;;;;10.80;99.90;;;;;;5028069;28;19920;-64
2022/10/06 03:49:05;;;;;;;;;;;10.80;99.90;;;;;;5047388;28;19924;-64
2022/10/06 03:51:32;;;;;;;;;;;10.70;99.90;;;;;;5030597;28;20113;-64
2022/10/06 03:53:58;;;;;;;;;;;10.70;99.90;;;;;;5030349;28;20363;-64
2022/10/06 03:56:27;;;;;;;;;;;10.70;99.90;;;;;;5041071;28;19921;-64
2022/10/06 03:58:54;;;;;;;;;;;10.60;99.90;;;;;;5029998;28;19928;-64
2022/10/06 04:01:24;;;;;;;;;;;10.60;99.90;;;;;;5030784;28;20012;-64
2022/10/06 04:03:50;;;;;;;;;;;10.60;99.90;;;;;;5031966;28;19986;-64
2022/10/06 04:06:17;;;;;;;;;;;10.60;99.90;;;;;;5031068;28;19921;-64
2022/10/06 04:08:43;;;;;;;;;;;10.60;99.90;;;;;;5048881;28;19925;-64
2022/10/06 04:11:11;;;;;;;;;;;10.60;99.90;;;;;;5029652;28;20349;-64
2022/10/06 04:13:37;;;;;;;;;;;10.60;99.90;;;;;;5029474;28;20052;-64
2022/10/06 04:16:19;;;;;;;;;;;10.60;99.90;;;;;;5034844;28;19982;-64
2022/10/06 04:18:47;;;;;;;;;;;10.50;99.90;;;;;;5030961;28;19921;-64
2022/10/06 04:21:13;;;;;;;;;;;10.50;99.90;;;;;;5040807;28;19983;-64
2022/10/06 04:23:38;;;;;;;;;;;10.40;99.90;;;;;;5048181;28;20329;-64
2022/10/06 04:26:08;;;;;;;;;;;10.40;99.90;;;;;;5030484;28;19963;-64
2022/10/06 04:28:34;;;;;;;;;;;10.30;99.90;;;;;;5014999;28;19925;-64
2022/10/06 04:31:00;;;;;;;;;;;10.40;99.90;;;;;;5028074;28;19925;-64
2022/10/06 04:33:26;;;;;;;;;;;10.30;99.90;;;;;;5033539;28;20277;-64
2022/10/06 04:35:58;;;;;;;;;;;10.30;99.90;;;;;;5036431;28;19929;-64
2022/10/06 04:38:24;;;;;;;;;;;10.20;99.90;;;;;;5048338;28;19956;-64
2022/10/06 04:40:50;;;;;;;;;;;10.20;99.90;;;;;;5016319;28;20394;-64
2022/10/06 04:43:15;;;;;;;;;;;10.20;99.90;;;;;;5032036;28;19924;-64
2022/10/06 04:45:41;;;;;;;;;;;10.20;99.90;;;;;;5053828;28;20015;-64
2022/10/06 04:48:06;;;;;;;;;;;10.10;99.90;;;;;;5036628;28;20039;-64
2022/10/06 04:50:32;;;;;;;;;;;10.20;99.90;;;;;;5036063;28;19921;-64
2022/10/06 04:52:57;;;;;;;;;;;10.20;99.90;;;;;;5053801;28;20017;-64
2022/10/06 04:55:23;;;;;;;;;;;10.20;99.90;;;;;;5036408;28;19920;-64
2022/10/06 04:57:48;;;;;;;;;;;10.20;99.90;;;;;;5034662;28;20421;-64
2022/10/06 05:00:24;;;;;;;;;;;10.10;99.90;;;;;;5052982;28;19924;-64
2022/10/06 05:02:54;;;;;;;;;;;10.20;99.90;;;;;;5053277;28;19967;-64
2022/10/06 05:05:20;;;;;;;;;;;10.10;99.90;;;;;;5052905;28;19927;-64
2022/10/06 05:07:45;;;;;;;;;;;10.20;99.90;;;;;;5020142;28;20313;-64
2022/10/06 05:10:11;;;;;;;;;;;10.10;99.90;;;;;;5036631;28;19924;-64
2022/10/06 05:12:36;;;;;;;;;;;10.10;99.90;;;;;;5054654;28;19921;-64
2022/10/06 05:15:02;;;;;;;;;;;10.10;99.90;;;;;;5035945;28;20333;-64
2022/10/06 05:17:27;;;;;;;;;;;10.10;99.90;;;;;;5036584;28;20130;-64
2022/10/06 05:19:53;;;;;;;;;;;10.10;99.90;;;;;;5035415;28;20019;-64
2022/10/06 05:22:18;;;;;;;;;;;10.10;99.90;;;;;;5054653;28;19925;-64
2022/10/06 05:24:44;;;;;;;;;;;10.00;99.90;;;;;;5036285;28;20047;-64
2022/10/06 05:27:09;;;;;;;;;;;10.00;99.90;;;;;;5036304;28;20003;-64
2022/10/06 05:29:35;;;;;;;;;;;10.00;99.90;;;;;;5036592;28;20337;-64
2022/10/06 05:32:00;;;;;;;;;;;10.00;99.90;;;;;;5053198;28;19970;-64
2022/10/06 05:34:26;;;;;;;;;;;10.10;99.90;;;;;;5036256;28;19924;-65
2022/10/06 05:36:51;;;;;;;;;;;10.00;99.90;;;;;;5053267;28;19920;-65
2022/10/06 05:39:17;;;;;;;;;;;10.10;99.90;;;;;;5034939;28;19932;-65
2022/10/06 05:41:42;;;;;;;;;;;10.10;99.90;;;;;;5033950;28;19971;-66
2022/10/06 05:44:08;;;;;;;;;;;10.00;99.90;;;;;;5048553;28;20282;-66
2022/10/06 05:46:33;;;;;;;;;;;10.10;99.90;;;;;;5051486;28;19928;-66
2022/10/06 05:49:03;;;;;;;;;;;10.10;99.90;;;;;;5052497;28;20488;-66
2022/10/06 05:51:30;;;;;;;;;;;10.10;99.90;;;;;;5049591;28;19935;-66
2022/10/06 05:53:56;;;;;;;;;;;10.10;99.90;;;;;;5051917;28;20282;-66
2022/10/06 05:56:23;;;;;;;;;;;10.10;99.90;;;;;;5035228;28;19928;-66
2022/10/06 05:58:50;;;;;;;;;;;10.20;99.90;;;;;;5035213;28;19978;-66
2022/10/06 06:01:15;;;;;;;;;;;10.20;99.90;;;;;;5051109;28;19947;-66
2022/10/06 06:03:41;;;;;;;;;;;10.20;99.90;;;;;;5053887;28;20446;-66
2022/10/06 06:06:14;;;;;;;;;;;10.20;99.90;;;;;;5053517;28;19925;-66
2022/10/06 06:08:40;;;;;;;;;;;10.30;99.90;;;;;;5052854;28;19921;-66
2022/10/06 06:11:07;;;;;;;;;;;10.30;99.90;;;;;;5052605;28;19931;-66
2022/10/06 06:13:34;;;;;;;;;;;10.30;99.90;;;;;;5056571;28;19979;-66
2022/10/06 06:15:59;;;;;;;;;;;10.30;99.90;;;;;;5037083;28;19972;-66
2022/10/06 06:18:28;;;;;;;;;;;10.40;99.90;;;;;;5058812;28;19967;-66
2022/10/06 06:20:55;;;;;;;;;;;10.70;99.90;;;;;;5053874;28;20696;-66
2022/10/06 06:23:20;;;;;;;;;;;11.10;99.90;;;;;;5036173;28;19921;-67
2022/10/06 06:25:54;;;;;;;;;;;11.60;99.90;;;;;;5037738;28;20011;-67
2022/10/06 06:28:20;;;;;;;;;;;12.10;99.90;;;;;;5034288;28;20381;-67
2022/10/06 06:30:46;;;;;;;;;;;12.20;99.90;;;;;;5036912;28;19928;-68
2022/10/06 06:33:12;;;;;;;;;;;12.20;99.90;;;;;;5037223;28;19921;-68
2022/10/06 06:35:37;;;;;;;;;;;12.20;99.90;;;;;;5036839;28;19927;-68
2022/10/06 06:38:02;;;;;;;;;;;12.20;99.90;;;;;;5053928;28;20269;-68
2022/10/06 06:40:28;;;;;;;;;;;12.30;99.90;;;;;;5054055;28;19928;-68
2022/10/06 06:42:53;;;;;;;;;;;12.60;99.90;;;;;;5036073;28;19920;-68
2022/10/06 06:45:20;;;;;;;;;;;13.00;99.90;;;;;;5035017;28;20289;-68
2022/10/06 06:47:46;;;;;;;;;;;13.60;99.90;;;;;;5036791;28;20273;-68
2022/10/06 06:50:12;;;;;;;;;;;14.20;99.90;;;;;;5035146;28;19928;-68
2022/10/06 06:52:38;;;;;;;;;;;14.70;99.90;;;;;;5035165;28;19921;-68
2022/10/06 06:55:04;;;;;;;;;;;15.10;99.90;;;;;;5053517;28;19976;-67
2022/10/06 06:57:29;;;;;;;;;;;15.60;99.90;;;;;;5053218;28;20389;-67
2022/10/06 06:59:55;;;;;;;;;;;15.90;99.90;;;;;;5018432;28;19983;-68
2022/10/06 07:02:25;;;;;;;;;;;16.30;99.90;;;;;;5036028;28;19920;-68
2022/10/06 07:04:50;;;;;;;;;;;16.50;99.90;;;;;;5033918;28;19929;-68
2022/10/06 07:07:16;;;;;;;;;;;16.90;99.90;;;;;;5045022;28;19924;-68
2022/10/06 07:09:41;;;;;;;;;;;17.00;99.90;;;;;;5054353;28;19924;-68
2022/10/06 07:12:10;;;;;;;;;;;16.80;99.90;;;;;;5053271;28;19925;-67
2022/10/06 07:25:05;;;;;;;;;;;16.60;99.90;;;;;;5054172;28;19974;-67
2022/10/06 07:25:33;;;;;;;;;;;14.30;99.90;;;;;;5049976;28;20369;-66
2022/10/06 07:27:58;;;;;;;;;;;14.00;99.90;;;;;;5035715;28;19928;-67
2022/10/06 07:30:26;;;;;;;;;;;13.80;99.90;;;;;;5035659;28;20308;-67
2022/10/06 07:32:52;;;;;;;;;;;14.30;99.90;;;;;;5034361;28;19928;-67
2022/10/06 07:35:20;;;;;;;;;;;14.80;99.90;;;;;;5052718;28;19924;-67
2022/10/06 07:37:45;;;;;;;;;;;15.00;99.90;;;;;;5035631;28;19920;-67
2022/10/06 07:40:11;;;;;;;;;;;14.80;99.90;;;;;;5035413;28;19971;-67
2022/10/06 07:42:47;;;;;;;;;;;14.60;99.90;;;;;;5034798;28;19975;-67
2022/10/06 07:48:01;;;;;;;;;;;14.30;99.90;;;;;;5051112;28;19921;-67
2022/10/06 07:50:27;;;;;;;;;;;14.20;99.90;;;;;;5053138;28;19920;-67
2022/10/06 07:52:53;;;;;;;;;;;14.20;99.90;;;;;;5033871;28;19921;-67
2022/10/06 07:55:18;;;;;;;;;;;14.20;99.90;;;;;;5052283;28;20005;-67
2022/10/06 07:57:45;;;;;;;;;;;14.20;99.90;;;;;;5018895;28;19970;-67
2022/10/06 08:00:11;;;;;;;;;;;14.20;99.90;;;;;;5035169;28;19931;-67
2022/10/06 08:02:38;;;;;;;;;;;14.20;99.90;;;;;;5052271;28;19920;-67
2022/10/06 08:05:04;;;;;;;;;;;14.20;99.90;;;;;;5037298;28;19921;-67
2022/10/06 08:07:30;;;;;;;;;;;14.20;99.90;;;;;;5018089;28;20282;-67
2022/10/06 08:09:55;;;;;;;;;;;14.20;99.90;;;;;;5034993;28;19925;-67
2022/10/06 08:12:33;;;;;;;;;;;14.20;99.90;;;;;;5033664;28;19921;-67
2022/10/06 08:15:10;;;;;;;;;;;14.30;99.90;;;;;;5034080;28;19960;-67
2022/10/06 08:17:36;;;;;;;;;;;14.30;99.90;;;;;;5052372;28;19921;-67
2022/10/06 08:20:02;;;;;;;;;;;14.30;99.90;;;;;;5038304;28;20350;-67
2022/10/06 08:22:28;;;;;;;;;;;14.40;99.90;;;;;;5038770;28;19968;-67
2022/10/06 08:24:55;;;;;;;;;;;14.40;99.90;;;;;;5030100;28;19921;-67
2022/10/06 08:27:22;;;;;;;;;;;14.50;99.90;;;;;;5038054;28;20426;-67
2022/10/06 08:29:47;;;;;;;;;;;14.50;99.90;;;;;;5056436;28;19921;-67
2022/10/06 08:32:13;;;;;;;;;;;14.50;99.90;;;;;;5054119;28;20050;-67
2022/10/06 08:34:38;;;;;;;;;;;14.60;99.90;;;;;;5038818;28;19959;-67
2022/10/06 08:37:04;;;;;;;;;;;14.60;99.90;;;;;;5055291;28;19928;-67
2022/10/06 08:39:29;;;;;;;;;;;14.70;99.90;;;;;;5054896;28;20358;-67
2022/10/06 08:41:56;;;;;;;;;;;14.70;99.90;;;;;;5054677;28;19936;-67
2022/10/06 08:44:33;;;;;;;;;;;14.70;99.90;;;;;;5036487;28;20654;-67
2022/10/06 08:47:04;;;;;;;;;;;14.80;99.90;;;;;;5053017;28;19924;-67
2022/10/06 08:49:34;;;;;;;;;;;14.90;99.90;;;;;;5054675;28;19928;-67
2022/10/06 08:52:09;;;;;;;;;;;14.90;99.90;;;;;;5050458;28;19932;-67
2022/10/06 08:54:57;;;;;;;;;;;14.90;99.90;;;;;;5032167;28;19924;-67
2022/10/06 08:57:28;;;;;;;;;;;14.90;99.90;;;;;;5019229;28;19944;-67
2022/10/06 08:59:56;;;;;;;;;;;15.00;99.90;;;;;;5059242;28;20362;-67
2022/10/06 09:02:37;;;;;;;;;;;15.00;99.90;;;;;;5037688;28;19920;-67
2022/10/06 09:05:04;;;;;;;;;;;15.10;99.90;;;;;;5055088;28;20008;-67
2022/10/06 09:07:42;;;;;;;;;;;15.10;99.90;;;;;;5055480;28;19927;-67
2022/10/06 09:10:26;;;;;;;;;;;15.10;99.90;;;;;;5032169;28;19924;-67
2022/10/06 09:12:59;;;;;;;;;;;15.20;99.90;;;;;;5054520;28;19960;-67
2022/10/06 09:15:27;;;;;;;;;;;15.30;99.90;;;;;;5062085;28;19978;-67
2022/10/06 09:18:09;;;;;;;;;;;15.30;99.90;;;;;;5047945;28;20376;-67
2022/10/06 09:20:53;;;;;;;;;;;15.30;99.90;;;;;;5052846;28;19932;-67
2022/10/06 09:26:03;;;;;;;;;;;15.50;99.90;;;;;;5054466;28;20350;-67
2022/10/06 09:28:29;;;;;;;;;;;15.50;99.90;;;;;;5036592;28;19924;-67
2022/10/06 09:30:55;;;;;;;;;;;15.60;99.90;;;;;;5037052;28;19920;-67
2022/10/06 09:33:21;;;;;;;;;;;15.60;99.90;;;;;;5054835;28;20250;-67
2022/10/06 09:36:07;;;;;;;;;;;15.70;99.90;;;;;;5054933;28;19980;-67
2022/10/06 09:38:44;;;;;;;;;;;15.70;99.90;;;;;;5036558;28;20395;-67
2022/10/06 09:41:12;;;;;;;;;;;15.70;99.90;;;;;;5054500;28;20425;-67
2022/10/06 09:43:37;;;;;;;;;;;15.60;99.90;;;;;;5034664;28;19921;-67
2022/10/06 09:46:40;;;;;;;;;;;15.60;99.90;;;;;;5054033;28;19925;-67
2022/10/06 09:49:10;;;;;;;;;;;15.50;99.90;;;;;;4972536;28;20489;-67
2022/10/06 09:51:36;;;;;;;;;;;15.50;99.90;;;;;;5023817;28;20313;-67
2022/10/06 09:54:09;;;;;;;;;;;15.50;99.90;;;;;;5061939;28;19932;-67
2022/10/06 09:56:39;;;;;;;;;;;15.50;99.90;;;;;;5026721;28;19921;-67
2022/10/06 09:59:06;;;;;;;;;;;15.50;99.90;;;;;;5055227;28;19928;-67
2022/10/06 10:01:32;;;;;;;;;;;15.50;99.90;;;;;;5035939;28;19925;-67
2022/10/06 10:03:59;;;;;;;;;;;15.60;99.90;;;;;;5034593;28;19928;-67
2022/10/06 10:06:29;;;;;;;;;;;15.70;99.90;;;;;;5042484;28;19927;-67
2022/10/06 10:09:12;;;;;;;;;;;15.80;99.90;;;;;;5036782;28;19986;-67
2022/10/06 10:14:21;;;;;;;;;;;16.00;99.90;;;;;;5026209;28;19925;-67
2022/10/06 10:16:47;;;;;;;;;;;16.20;99.90;;;;;;5052006;28;19929;-67
2022/10/06 10:19:21;;;;;;;;;;;16.10;99.90;;;;;;5026355;28;19928;-67
2022/10/06 10:21:46;;;;;;;;;;;16.10;99.90;;;;;;5035320;28;19929;-67
2022/10/06 10:24:17;;;;;;;;;;;15.90;99.90;;;;;;5013059;28;20350;-67
2022/10/06 10:26:43;;;;;;;;;;;15.90;99.90;;;;;;5031808;28;19931;-67
2022/10/06 10:29:21;;;;;;;;;;;15.90;99.90;;;;;;5035731;28;19932;-67
2022/10/06 10:31:59;;;;;;;;;;;15.90;99.90;;;;;;5035477;28;20702;-67
2022/10/06 10:34:25;;;;;;;;;;;15.90;99.90;;;;;;5033972;28;20004;-67
2022/10/06 10:36:50;;;;;;;;;;;15.90;99.90;;;;;;5054640;28;19964;-66
2022/10/06 10:39:20;;;;;;;;;;;15.90;99.90;;;;;;5036496;28;19932;-67
2022/10/06 10:41:49;;;;;;;;;;;16.00;99.90;;;;;;5052171;28;20369;-67
2022/10/06 10:44:24;;;;;;;;;;;16.10;99.90;;;;;;5036227;28;19921;-67
2022/10/06 10:46:54;;;;;;;;;;;16.10;99.90;;;;;;5035070;28;19925;-67
2022/10/06 10:49:30;;;;;;;;;;;16.10;99.90;;;;;;5035556;28;20414;-67
2022/10/06 10:52:14;;;;;;;;;;;16.00;99.90;;;;;;5052255;28;19995;-67
2022/10/06 10:54:47;;;;;;;;;;;15.90;99.90;;;;;;5053513;28;19925;-67
2022/10/06 10:57:15;;;;;;;;;;;15.90;99.90;;;;;;5042936;28;19974;-67
2022/10/06 10:59:48;;;;;;;;;;;15.90;99.90;;;;;;5052766;28;20323;-67
2022/10/06 11:02:21;;;;;;;;;;;16.00;99.90;;;;;;5033633;28;19921;-67
2022/10/06 11:04:48;;;;;;;;;;;16.10;99.90;;;;;;5018533;28;19928;-67
2022/10/06 11:07:23;;;;;;;;;;;16.20;99.90;;;;;;5052820;28;19925;-67
2022/10/06 11:10:08;;;;;;;;;;;16.20;99.90;;;;;;5034962;28;19932;-67
2022/10/06 11:12:53;;;;;;;;;;;16.40;99.90;;;;;;5051636;28;20043;-67
2022/10/06 11:15:31;;;;;;;;;;;16.30;99.90;;;;;;5050715;28;19984;-67
2022/10/06 11:18:00;;;;;;;;;;;16.30;99.90;;;;;;5048929;28;20012;-67
2022/10/06 11:20:36;;;;;;;;;;;16.20;99.90;;;;;;5026068;28;20325;-67
2022/10/06 11:23:05;;;;;;;;;;;16.40;99.90;;;;;;5032982;28;20316;-67
2022/10/06 11:25:49;;;;;;;;;;;16.30;99.90;;;;;;5053026;28;19921;-67
2022/10/06 11:28:24;;;;;;;;;;;16.40;99.90;;;;;;5052616;28;19921;-67
2022/10/06 11:30:52;;;;;;;;;;;16.60;99.90;;;;;;5052222;28;19943;-67
2022/10/06 11:33:36;;;;;;;;;;;16.70;99.90;;;;;;5052742;28;19920;-67
2022/10/06 11:36:02;;;;;;;;;;;17.00;99.90;;;;;;5053316;28;19920;-67
2022/10/06 11:38:33;;;;;;;;;;;17.10;99.90;;;;;;5034734;28;19920;-67
2022/10/06 11:41:06;;;;;;;;;;;17.10;99.90;;;;;;5051522;28;19978;-66
2022/10/06 11:43:39;;;;;;;;;;;17.10;99.90;;;;;;5051314;28;19960;-66
2022/10/06 11:46:17;;;;;;;;;;;17.10;99.60;;;;;;5049617;28;19925;-66
2022/10/06 11:48:43;;;;;;;;;;;17.00;99.90;;;;;;5034709;28;20321;-66
2022/10/06 11:51:23;;;;;;;;;;;17.00;99.80;;;;;;5034279;28;19925;-67
2022/10/06 11:53:54;;;;;;;;;;;16.90;99.90;;;;;;5005817;28;19931;-67
2022/10/06 11:56:19;;;;;;;;;;;17.00;99.90;;;;;;5051662;28;19920;-67
2022/10/06 11:58:51;;;;;;;;;;;17.00;99.80;;;;;;5052603;28;20247;-66
2022/10/06 12:01:36;;;;;;;;;;;17.00;99.50;;;;;;5034265;28;19931;-67
2022/10/06 12:04:08;;;;;;;;;;;17.00;99.50;;;;;;5050051;28;19999;-66
2022/10/06 12:06:45;;;;;;;;;;;16.90;98.90;;;;;;5029669;28;19931;-67
2022/10/06 12:09:49;;;;;;;;;;;16.90;99.80;;;;;;5032174;28;19936;-67
2022/10/06 12:12:17;;;;;;;;;;;17.00;99.20;;;;;;4971435;28;20273;-67
2022/10/06 12:15:03;;;;;;;;;;;17.10;99.50;;;;;;4951342;28;19929;-67
2022/10/06 12:17:31;;;;;;;;;;;17.20;99.50;;;;;;5002091;28;19932;-67
2022/10/06 12:20:03;;;;;;;;;;;17.10;98.50;;;;;;5032043;28;19921;-66
2022/10/06 12:22:33;;;;;;;;;;;17.20;97.70;;;;;;5030685;28;19925;-67
2022/10/06 12:25:14;;;;;;;;;;;17.30;97.90;;;;;;5050283;28;20015;-67
2022/10/06 12:27:51;;;;;;;;;;;17.30;97.80;;;;;;5051965;28;20305;-69
2022/10/06 12:30:20;;;;;;;;;;;17.30;97.50;;;;;;5047047;28;20018;-67
2022/10/06 12:32:56;;;;;;;;;;;17.20;97.50;;;;;;5033280;28;20381;-66
2022/10/06 12:35:23;;;;;;;;;;;17.30;96.90;;;;;;5049634;28;19920;-66
2022/10/06 12:37:51;;;;;;;;;;;17.30;96.30;;;;;;5034348;28;19925;-66
2022/10/06 12:40:36;;;;;;;;;;;17.30;97.20;;;;;;5046706;28;20020;-67
2022/10/06 12:43:13;;;;;;;;;;;17.30;96.70;;;;;;5050228;28;19975;-67
2022/10/06 12:45:54;;;;;;;;;;;17.40;96.80;;;;;;5033528;28;19921;-67
2022/10/06 12:48:32;;;;;;;;;;;17.30;97.20;;;;;;5034103;28;20712;-67
2022/10/06 12:51:02;;;;;;;;;;;17.30;97.20;;;;;;5026287;28;19929;-67
2022/10/06 12:53:31;;;;;;;;;;;17.30;96.70;;;;;;5033480;28;19970;-67
2022/10/06 12:56:00;;;;;;;;;;;17.30;97.00;;;;;;5032504;28;19924;-67
2022/10/06 12:58:27;;;;;;;;;;;17.30;96.60;;;;;;5034579;28;20304;-66
2022/10/06 13:00:58;;;;;;;;;;;17.30;97.40;;;;;;5019025;28;19928;-66
2022/10/06 13:03:24;;;;;;;;;;;17.40;97.20;;;;;;5037384;28;20415;-67
2022/10/06 13:05:51;;;;;;;;;;;17.40;97.00;;;;;;5038695;28;19974;-66
2022/10/06 13:08:24;;;;;;;;;;;17.40;96.70;;;;;;5054186;28;20376;-66
2022/10/06 13:10:49;;;;;;;;;;;17.40;96.40;;;;;;5037571;28;19967;-67
2022/10/06 13:13:21;;;;;;;;;;;17.30;96.20;;;;;;5036949;28;19920;-67
2022/10/06 13:15:46;;;;;;;;;;;17.40;96.20;;;;;;5054788;28;20358;-67
2022/10/06 13:18:13;;;;;;;;;;;17.30;96.20;;;;;;5055533;28;19977;-67
2022/10/06 13:20:42;;;;;;;;;;;17.40;96.30;;;;;;5052738;28;19972;-67
2022/10/06 13:23:07;;;;;;;;;;;17.30;97.00;;;;;;5033475;28;19947;-66
2022/10/06 13:25:43;;;;;;;;;;;17.30;96.90;;;;;;5053249;28;20381;-67
2022/10/06 13:28:29;;;;;;;;;;;17.40;96.80;;;;;;5037578;28;19928;-67
2022/10/06 13:30:57;;;;;;;;;;;17.50;96.30;;;;;;5036882;28;19927;-66
2022/10/06 13:33:24;;;;;;;;;;;17.50;96.40;;;;;;5018259;28;19927;-66
2022/10/06 13:35:51;;;;;;;;;;;17.50;96.30;;;;;;5048777;28;19948;-66
2022/10/06 13:38:17;;;;;;;;;;;17.50;97.00;;;;;;5053514;28;20412;-67
2022/10/06 13:40:43;;;;;;;;;;;17.50;96.70;;;;;;5049808;28;19924;-66
2022/10/06 13:43:14;;;;;;;;;;;17.50;97.00;;;;;;5054991;28;19924;-66
2022/10/06 14:02:34;;;;;;;;;;;17.30;97.00;;;;;;5047693;28;19928;-66
2022/10/06 14:05:17;;;;;;;;;;;17.20;96.90;;;;;;5029255;28;19925;-67
2022/10/06 14:07:43;;;;;;;;;;;17.10;97.40;;;;;;5015988;28;19925;-67
2022/10/06 14:10:16;;;;;;;;;;;17.20;96.80;;;;;;5052031;28;19932;-67
2022/10/06 14:12:43;;;;;;;;;;;17.10;96.90;;;;;;5058419;28;20020;-67
2022/10/06 14:15:15;;;;;;;;;;;17.00;96.50;;;;;;5050033;28;19963;-67
2022/10/06 14:17:40;;;;;;;;;;;17.00;97.40;;;;;;5033455;28;19921;-67
2022/10/06 14:20:25;;;;;;;;;;;17.00;97.40;;;;;;5033233;28;19998;-67
2022/10/06 14:22:51;;;;;;;;;;;17.10;96.80;;;;;;5046883;28;20377;-67
2022/10/06 14:25:16;;;;;;;;;;;17.00;96.70;;;;;;5033511;28;19929;-67
2022/10/06 14:27:41;;;;;;;;;;;17.00;96.90;;;;;;5035123;28;19960;-67
2022/10/06 14:30:07;;;;;;;;;;;17.00;97.00;;;;;;5032328;28;19928;-66
2022/10/06 14:32:37;;;;;;;;;;;17.10;96.30;;;;;;5035331;28;19921;-66
2022/10/06 14:35:02;;;;;;;;;;;17.00;96.50;;;;;;5062051;28;20297;-66
2022/10/06 14:37:28;;;;;;;;;;;17.00;97.10;;;;;;5018424;28;19947;-66
2022/10/06 14:39:54;;;;;;;;;;;17.00;96.00;;;;;;5049671;28;19959;-66
2022/10/06 14:42:23;;;;;;;;;;;17.00;96.40;;;;;;5033921;28;19929;-66
2022/10/06 14:44:48;;;;;;;;;;;17.00;96.60;;;;;;5030021;28;19925;-66
2022/10/06 14:47:14;;;;;;;;;;;16.90;96.80;;;;;;5033651;28;19920;-67
2022/10/06 14:49:39;;;;;;;;;;;16.70;96.80;;;;;;5052734;28;20419;-67
2022/10/06 14:52:07;;;;;;;;;;;16.50;97.20;;;;;;5050729;28;20007;-67
2022/10/06 14:54:34;;;;;;;;;;;16.40;97.90;;;;;;5049172;28;19921;-67
2022/10/06 14:56:59;;;;;;;;;;;16.30;98.10;;;;;;5050003;28;20357;-67
2022/10/06 14:59:25;;;;;;;;;;;16.10;98.00;;;;;;5043434;28;19932;-67